createdAt,value
2023-01-23T00:00:39.017Z,99932.81
2023-01-23T00:02:43.029Z,99930.09
2023-01-23T00:04:44.878Z,99930.09
2023-01-23T00:06:47.192Z,99928.41
2023-01-23T00:08:48.798Z,99926.75
2023-01-23T00:10:50.413Z,99926.75
2023-01-23T00:12:53.381Z,99922.34
2023-01-23T00:14:56.936Z,99930.47
2023-01-23T00:17:00.243Z,99926.09
2023-01-23T00:19:05.786Z,99931.69
2023-01-23T00:21:13.145Z,99932.53
2023-01-23T00:23:14.794Z,99928.13
2023-01-23T00:25:16.845Z,99930.03
2023-01-23T00:27:19.898Z,99930.03
2023-01-23T00:29:21.694Z,99929.16
2023-01-23T00:31:26.898Z,99926.47
2023-01-23T00:33:28.687Z,99930.19
2023-01-23T00:35:30.381Z,99931.03
2023-01-23T00:37:32.190Z,99931.88
2023-01-23T00:39:34.010Z,99932.91
2023-01-23T00:41:41.388Z,99939.34
2023-01-23T00:43:42.998Z,99945.56
2023-01-23T00:45:45.309Z,99940.34
2023-01-23T00:47:47.767Z,99943.06
2023-01-23T00:49:49.529Z,99952.03
2023-01-23T00:51:51.625Z,99949.13
2023-01-23T00:53:53.392Z,99955.75
2023-01-23T00:55:56.164Z,99954.09
2023-01-23T00:57:59.733Z,99960.31
2023-01-23T01:00:01.840Z,99960.31
2023-01-23T01:02:06.890Z,99964.91
2023-01-23T01:04:09.153Z,99963.00
2023-01-23T01:06:12.053Z,99971.13
2023-01-23T01:08:13.850Z,99969.47
2023-01-23T01:10:18.491Z,99974.88
2023-01-23T01:12:20.461Z,99974.88
2023-01-23T01:14:26.412Z,99978.59
2023-01-23T01:16:28.324Z,99975.88
2023-01-23T01:18:33.086Z,99981.50
2023-01-23T01:20:34.882Z,99986.72
2023-01-23T01:22:38.534Z,99978.59
2023-01-23T01:24:42.252Z,99983.16
2023-01-23T01:26:44.504Z,99984.00
2023-01-23T01:28:46.154Z,99992.31
2023-01-23T01:30:49.207Z,99984.38
2023-01-23T01:32:50.850Z,99991.47
2023-01-23T01:34:52.743Z,99983.34
2023-01-23T01:36:54.484Z,99994.19
2023-01-23T01:38:56.140Z,99997.91
2023-01-23T01:40:59.881Z,99998.94
2023-01-23T01:43:05.192Z,99988.97
2023-01-23T01:45:46.456Z,99984.75
2023-01-23T01:47:48.201Z,99993.69
2023-01-23T01:50:14.636Z,99996.41
2023-01-23T01:52:22.104Z,99997.25
2023-01-23T01:54:34.709Z,99995.19
2023-01-23T01:56:44.079Z,99997.25
2023-01-23T01:58:49.072Z,99995.19
2023-01-23T02:00:50.994Z,99998.75
2023-01-23T02:03:03.670Z,100002.28
2023-01-23T02:05:13.327Z,100008.72
2023-01-23T02:07:24.070Z,100004.16
2023-01-23T02:09:26.880Z,100005.00
2023-01-23T02:11:28.926Z,100002.28
2023-01-23T02:13:36.848Z,99999.59
2023-01-23T02:15:40.029Z,100008.53
2023-01-23T02:17:42.311Z,100007.69
2023-01-23T02:20:21.565Z,100003.50
2023-01-23T02:23:03.152Z,100008.91
2023-01-23T02:25:26.002Z,100008.91
2023-01-23T02:27:27.737Z,100009.75
2023-01-23T02:29:41.050Z,100013.66
2023-01-23T02:31:45.896Z,100009.91
2023-01-23T02:33:53.990Z,100020.75
2023-01-23T02:35:59.427Z,100023.44
2023-01-23T02:38:05.096Z,100019.25
2023-01-23T02:40:07.823Z,100020.94
2023-01-23T02:42:10.521Z,100014.69
2023-01-23T02:44:31.399Z,100009.63
2023-01-23T02:46:36.505Z,100000.88
2023-01-23T02:48:42.664Z,100004.63
2023-01-23T02:50:47.132Z,100003.75
2023-01-23T02:52:50.994Z,100009.34
2023-01-23T02:54:53.988Z,100012.25
2023-01-23T02:56:57.282Z,100013.09
2023-01-23T02:59:18.373Z,100014.94
2023-01-23T03:01:20.431Z,100006.84
2023-01-23T03:03:22.877Z,100008.88
2023-01-23T03:05:24.619Z,100010.75
2023-01-23T03:07:30.224Z,100013.44
2023-01-23T03:09:32.099Z,100008.41
2023-01-23T03:11:35.483Z,100010.94
2023-01-23T03:13:49.096Z,100015.50
2023-01-23T03:15:53.143Z,100008.41
2023-01-23T03:17:54.800Z,100006.53
2023-01-23T03:19:59.288Z,100009.44
2023-01-23T03:22:03.409Z,100001.50
2023-01-23T03:24:12.183Z,100005.03
2023-01-23T03:26:15.139Z,99992.38
2023-01-23T03:28:40.717Z,99993.22
2023-01-23T03:30:45.395Z,99988.81
2023-01-23T03:32:50.035Z,99994.88
2023-01-23T03:34:51.665Z,99987.81
2023-01-23T03:36:54.079Z,99981.56
2023-01-23T03:39:14.083Z,99985.09
2023-01-23T03:41:27.768Z,99986.97
2023-01-23T03:43:37.332Z,99981.34
2023-01-23T03:45:40.592Z,99987.41
2023-01-23T03:47:42.501Z,99989.09
2023-01-23T03:49:44.291Z,99988.09
2023-01-23T03:51:46.208Z,99995.16
2023-01-23T03:53:47.729Z,100000.41
2023-01-23T03:55:50.930Z,99997.50
2023-01-23T03:57:53.248Z,99999.38
2023-01-23T04:00:01.059Z,99996.66
2023-01-23T04:02:15.152Z,99996.66
2023-01-23T04:04:16.741Z,99989.19
2023-01-23T04:06:20.538Z,100007.31
2023-01-23T04:08:23.423Z,99999.00
2023-01-23T04:10:25.604Z,99998.16
2023-01-23T04:12:31.981Z,100002.56
2023-01-23T04:14:37.580Z,100007.78
2023-01-23T04:16:39.833Z,100008.63
2023-01-23T04:18:41.819Z,100017.59
2023-01-23T04:20:43.635Z,100018.44
2023-01-23T04:22:47.864Z,100017.59
2023-01-23T04:24:49.891Z,100023.63
2023-01-23T04:26:51.933Z,100023.63
2023-01-23T04:28:53.556Z,100029.91
2023-01-23T04:30:55.587Z,100030.06
2023-01-23T04:33:03.960Z,100031.75
2023-01-23T04:35:08.786Z,100029.06
2023-01-23T04:37:13.037Z,100037.16
2023-01-23T04:39:15.472Z,100037.16
2023-01-23T04:41:26.189Z,100037.16
2023-01-23T04:43:35.968Z,100051.53
2023-01-23T04:45:44.090Z,100055.09
2023-01-23T04:48:05.189Z,100055.09
2023-01-23T04:50:10.165Z,100055.91
2023-01-23T04:52:13.308Z,100045.94
2023-01-23T04:54:21.207Z,100046.78
2023-01-23T04:56:22.939Z,100047.63
2023-01-23T04:58:25.624Z,100047.63
2023-01-23T05:00:33.601Z,100053.03
2023-01-23T05:02:37.091Z,100049.28
2023-01-23T05:04:39.042Z,100055.53
2023-01-23T05:06:40.768Z,100043.88
2023-01-23T05:08:42.258Z,100055.53
2023-01-23T05:10:51.120Z,100049.28
2023-01-23T05:12:54.617Z,100056.38
2023-01-23T05:14:56.707Z,100042.88
2023-01-23T05:17:07.087Z,100047.25
2023-01-23T05:19:13.954Z,100054.34
2023-01-23T05:21:16.202Z,100059.75
2023-01-23T05:23:18.633Z,100052.69
2023-01-23T05:25:27.608Z,100066.84
2023-01-23T05:27:31.085Z,100076.63
2023-01-23T05:29:35.130Z,100072.91
2023-01-23T05:31:42.314Z,100077.47
2023-01-23T05:34:22.393Z,100081.38
2023-01-23T05:36:24.221Z,100078.53
2023-01-23T05:38:26.090Z,100077.66
2023-01-23T05:40:28.783Z,100088.50
2023-01-23T05:42:50.732Z,100080.53
2023-01-23T05:45:12.787Z,100077.66
2023-01-23T05:47:17.028Z,100081.22
2023-01-23T05:49:18.803Z,100085.59
2023-01-23T05:51:22.435Z,100086.44
2023-01-23T05:53:25.134Z,100090.16
2023-01-23T05:55:27.109Z,100098.28
2023-01-23T05:57:30.199Z,100096.41
2023-01-23T05:59:54.594Z,100096.41
2023-01-23T06:02:17.901Z,100099.97
2023-01-23T06:04:42.646Z,100101.81
2023-01-23T06:06:59.826Z,100098.28
2023-01-23T06:09:02.335Z,100108.94
2023-01-23T06:11:07.848Z,100116.00
2023-01-23T06:13:09.714Z,100117.03
2023-01-23T06:15:12.456Z,100119.75
2023-01-23T06:17:16.130Z,100124.31
2023-01-23T06:19:18.451Z,100123.31
2023-01-23T06:21:20.231Z,100134.13
2023-01-23T06:23:22.616Z,100137.66
2023-01-23T06:25:24.732Z,100142.25
2023-01-23T06:27:28.477Z,100145.09
2023-01-23T06:29:30.083Z,100140.53
2023-01-23T06:31:32.761Z,100147.81
2023-01-23T06:33:38.955Z,100148.66
2023-01-23T06:35:46.034Z,100157.63
2023-01-23T06:37:48.062Z,100163.88
2023-01-23T06:39:51.908Z,100169.28
2023-01-23T06:41:58.121Z,100166.59
2023-01-23T06:43:59.920Z,100170.97
2023-01-23T06:46:03.013Z,100168.25
2023-01-23T06:48:05.783Z,100167.25
2023-01-23T06:50:08.224Z,100178.06
2023-01-23T06:52:15.328Z,100178.91
2023-01-23T06:54:20.330Z,100183.47
2023-01-23T06:56:23.985Z,100177.22
2023-01-23T06:58:27.557Z,100171.81
2023-01-23T07:00:29.205Z,100185.34
2023-01-23T07:02:33.536Z,100177.22
2023-01-23T07:04:35.571Z,100184.47
2023-01-23T07:06:37.557Z,100181.78
2023-01-23T07:08:40.321Z,100181.63
2023-01-23T07:10:42.658Z,100191.59
2023-01-23T07:12:44.326Z,100201.38
2023-01-23T07:14:45.927Z,100199.72
2023-01-23T07:16:51.896Z,100206.78
2023-01-23T07:18:57.095Z,100205.97
2023-01-23T07:20:59.261Z,100205.97
2023-01-23T07:23:01.791Z,100211.19
2023-01-23T07:25:05.301Z,100218.47
2023-01-23T07:27:07.125Z,100207.63
2023-01-23T07:29:09.002Z,100213.03
2023-01-23T07:31:10.702Z,100210.19
2023-01-23T07:33:12.620Z,100215.59
2023-01-23T07:35:14.193Z,100217.25
2023-01-23T07:37:16.058Z,100207.47
2023-01-23T07:39:17.944Z,100205.78
2023-01-23T07:41:22.018Z,100205.78
2023-01-23T07:43:23.683Z,100206.44
2023-01-23T07:45:25.962Z,100214.56
2023-01-23T07:47:27.819Z,100204.56
2023-01-23T07:49:29.535Z,100206.44
2023-01-23T07:51:31.123Z,100196.47
2023-01-23T07:53:33.030Z,100215.19
2023-01-23T07:55:38.194Z,100208.13
2023-01-23T07:57:39.861Z,100213.34
2023-01-23T07:59:41.528Z,100211.69
2023-01-23T08:01:43.447Z,100211.50
2023-01-23T08:03:48.243Z,100216.06
2023-01-23T08:05:50.607Z,100217.75
2023-01-23T08:08:07.393Z,100218.59
2023-01-23T08:10:14.345Z,100218.59
2023-01-23T08:12:16.056Z,100219.59
2023-01-23T08:14:17.633Z,100225.69
2023-01-23T08:16:19.433Z,100229.06
2023-01-23T08:18:21.052Z,100230.06
2023-01-23T08:20:23.277Z,100221.97
2023-01-23T08:22:24.981Z,100224.50
2023-01-23T08:24:26.560Z,100220.94
2023-01-23T08:26:28.281Z,100222.47
2023-01-23T08:28:29.966Z,100220.59
2023-01-23T08:30:31.653Z,100225.00
2023-01-23T08:32:35.263Z,100214.19
2023-01-23T08:34:36.945Z,100219.41
2023-01-23T08:36:38.514Z,100219.41
2023-01-23T08:38:40.324Z,100209.41
2023-01-23T08:40:42.177Z,100195.88
2023-01-23T08:42:43.959Z,100212.97
2023-01-23T08:44:45.609Z,100215.50
2023-01-23T08:46:47.108Z,100208.22
2023-01-23T08:48:52.284Z,100206.34
2023-01-23T08:51:02.274Z,100208.88
2023-01-23T08:53:04.298Z,100208.03
2023-01-23T08:55:06.723Z,100209.72
2023-01-23T08:57:11.120Z,100209.72
2023-01-23T08:59:12.931Z,100206.81
2023-01-23T09:01:19.404Z,100208.50
2023-01-23T09:03:23.705Z,100200.41
2023-01-23T09:05:25.595Z,100205.63
2023-01-23T09:07:27.222Z,100195.81
2023-01-23T09:09:32.044Z,100208.31
2023-01-23T09:11:34.065Z,100207.31
2023-01-23T09:13:36.782Z,100207.31
2023-01-23T09:15:39.871Z,100200.88
2023-01-23T09:17:41.691Z,100210.50
2023-01-23T09:19:43.219Z,100210.31
2023-01-23T09:21:45.024Z,100219.09
2023-01-23T09:23:46.588Z,100210.81
2023-01-23T09:25:48.478Z,100215.00
2023-01-23T09:27:50.513Z,100224.44
2023-01-23T09:29:53.221Z,100213.63
2023-01-23T09:31:54.960Z,100223.25
2023-01-23T09:33:56.739Z,100224.75
2023-01-23T09:35:59.039Z,100220.16
2023-01-23T09:38:01.048Z,100224.53
2023-01-23T09:40:02.685Z,100223.34
2023-01-23T09:42:09.684Z,100229.59
2023-01-23T09:44:43.560Z,100224.84
2023-01-23T09:46:54.006Z,100224.47
2023-01-23T09:49:14.295Z,100222.63
2023-01-23T09:51:23.714Z,100219.56
2023-01-23T09:53:31.184Z,100218.16
2023-01-23T09:55:43.044Z,100212.16
2023-01-23T09:57:52.892Z,100211.00
2023-01-23T10:00:13.543Z,100212.66
2023-01-23T10:02:21.178Z,100215.00
2023-01-23T10:04:25.525Z,100211.09
2023-01-23T10:06:31.738Z,100209.88
2023-01-23T10:09:07.072Z,100223.22
2023-01-23T10:11:22.109Z,100211.19
2023-01-23T10:14:08.022Z,100217.66
2023-01-23T10:16:25.309Z,100215.59
2023-01-23T10:18:46.981Z,100202.88
2023-01-23T10:21:13.738Z,100217.09
2023-01-23T10:23:41.964Z,100206.25
2023-01-23T10:25:44.254Z,100205.88
2023-01-23T10:27:48.265Z,100202.13
2023-01-23T10:29:57.935Z,100196.53
2023-01-23T10:32:03.923Z,100197.19
2023-01-23T10:34:26.088Z,100197.00
2023-01-23T10:36:54.748Z,100210.38
2023-01-23T10:39:04.300Z,100202.25
2023-01-23T10:41:14.721Z,100203.09
2023-01-23T10:43:21.133Z,100203.91
2023-01-23T10:45:23.148Z,100205.59
2023-01-23T10:47:52.011Z,100203.75
2023-01-23T10:49:56.277Z,100203.53
2023-01-23T10:51:58.573Z,100203.19
2023-01-23T10:54:31.347Z,100196.75
2023-01-23T10:56:58.378Z,100203.66
2023-01-23T10:59:02.257Z,100208.69
2023-01-23T11:01:05.654Z,100200.19
2023-01-23T11:03:22.565Z,100197.09
2023-01-23T11:05:55.116Z,100196.53
2023-01-23T11:08:04.145Z,100200.56
2023-01-23T11:10:11.792Z,100190.16
2023-01-23T11:12:25.580Z,100186.88
2023-01-23T11:14:27.643Z,100193.63
2023-01-23T11:16:29.806Z,100207.84
2023-01-23T11:18:39.709Z,100190.34
2023-01-23T11:20:55.690Z,100202.31
2023-01-23T11:23:17.600Z,100195.66
2023-01-23T11:25:32.530Z,100184.03
2023-01-23T11:27:34.173Z,100181.81
2023-01-23T11:30:10.864Z,100177.28
2023-01-23T11:32:13.849Z,100163.56
2023-01-23T11:34:19.573Z,100174.00
2023-01-23T11:36:44.592Z,100166.31
2023-01-23T11:38:53.263Z,100167.59
2023-01-23T11:40:55.171Z,100170.59
2023-01-23T11:42:57.041Z,100165.25
2023-01-23T11:44:59.970Z,100161.31
2023-01-23T11:47:18.084Z,100157.00
2023-01-23T11:49:37.955Z,100155.16
2023-01-23T11:52:02.351Z,100155.22
2023-01-23T11:54:33.682Z,100161.16
2023-01-23T11:57:02.020Z,100152.50
2023-01-23T11:59:18.649Z,100149.06
2023-01-23T12:02:02.511Z,100141.47
2023-01-23T12:04:45.420Z,100145.75
2023-01-23T12:06:56.801Z,100140.41
2023-01-23T12:09:21.644Z,100126.69
2023-01-23T12:11:24.632Z,100126.13
2023-01-23T12:14:04.852Z,100124.50
2023-01-23T12:16:27.480Z,100127.50
2023-01-23T12:18:56.726Z,100123.59
2023-01-23T12:21:30.794Z,100113.16
2023-01-23T12:23:52.224Z,100102.28
2023-01-23T12:26:20.837Z,100097.28
2023-01-23T12:28:56.748Z,100096.03
2023-01-23T12:31:11.876Z,100089.78
2023-01-23T12:33:27.991Z,100077.59
2023-01-23T12:35:55.570Z,100082.84
2023-01-23T12:38:14.288Z,100074.63
2023-01-23T12:40:27.349Z,100068.34
2023-01-23T12:42:42.382Z,100072.72
2023-01-23T12:45:09.666Z,100065.78
2023-01-23T12:47:19.958Z,100069.97
2023-01-23T12:49:33.500Z,100067.00
2023-01-23T12:51:40.333Z,100059.66
2023-01-23T12:53:45.596Z,100054.81
2023-01-23T12:55:53.405Z,100053.13
2023-01-23T12:58:00.097Z,100048.91
2023-01-23T13:00:31.275Z,100047.22
2023-01-23T13:02:45.118Z,100036.50
2023-01-23T13:05:02.931Z,100039.41
2023-01-23T13:07:26.465Z,100037.53
2023-01-23T13:09:39.858Z,100034.56
2023-01-23T13:12:20.473Z,100024.72
2023-01-23T13:14:47.496Z,100034.13
2023-01-23T13:16:56.995Z,100035.81
2023-01-23T13:19:19.818Z,100040.03
2023-01-23T13:21:43.524Z,100037.94
2023-01-23T13:23:45.747Z,100035.81
2023-01-23T13:25:51.170Z,100034.13
2023-01-23T13:28:01.967Z,100041.47
2023-01-23T13:30:28.074Z,100032.84
2023-01-23T13:32:37.129Z,100046.50
2023-01-23T13:34:39.288Z,100041.63
2023-01-23T13:36:41.197Z,100039.53
2023-01-23T13:38:42.791Z,100043.28
2023-01-23T13:41:04.318Z,100042.91
2023-01-23T13:43:47.354Z,100041.84
2023-01-23T13:45:50.787Z,100042.31
2023-01-23T14:23:46.383Z,100025.16
2023-01-23T14:25:48.491Z,100038.59
2023-01-23T14:28:03.047Z,100035.88
2023-01-23T14:30:18.982Z,100023.94
2023-01-23T14:32:24.846Z,100032.75
2023-01-23T14:34:26.908Z,100034.44
2023-01-23T14:36:30.218Z,100035.25
2023-01-23T14:38:34.370Z,100027.06
2023-01-23T14:40:50.226Z,100029.41
2023-01-23T14:43:00.041Z,100037.38
2023-01-23T14:45:03.029Z,100031.09
2023-01-23T14:47:17.966Z,100030.88
2023-01-23T14:49:26.391Z,100039.03
2023-01-23T14:51:28.735Z,100034.63
2023-01-23T14:53:30.619Z,100041.56
2023-01-23T14:55:37.764Z,100042.19
2023-01-23T14:57:40.180Z,100036.31
2023-01-23T14:59:43.544Z,100041.53
2023-01-23T15:01:54.081Z,100045.94
2023-01-23T15:04:02.226Z,100040.88
2023-01-23T15:06:10.085Z,100041.72
2023-01-23T15:08:27.685Z,100040.25
2023-01-23T15:10:41.236Z,100033.75
2023-01-23T15:13:02.591Z,100039.81
2023-01-23T15:15:04.643Z,100036.66
2023-01-23T15:17:17.106Z,100039.16
2023-01-23T15:19:24.323Z,100050.03
2023-01-23T15:21:35.761Z,100042.28
2023-01-23T15:23:41.136Z,100045.63
2023-01-23T15:25:45.271Z,100052.94
2023-01-23T15:27:47.884Z,100042.69
2023-01-23T15:29:49.802Z,100050.84
2023-01-23T15:31:53.585Z,100050.63
2023-01-23T15:33:57.873Z,100052.72
2023-01-23T15:36:27.577Z,100060.00
2023-01-23T15:38:29.319Z,100059.78
2023-01-23T15:40:35.327Z,100058.50
2023-01-23T15:42:36.930Z,100045.09
2023-01-23T15:44:39.234Z,100055.13
2023-01-23T15:46:41.015Z,100058.88
2023-01-23T15:48:45.550Z,100057.22
2023-01-23T15:50:47.459Z,100057.22
2023-01-23T15:52:54.610Z,100057.22
2023-01-23T15:55:05.367Z,100057.63
2023-01-23T15:57:08.579Z,100058.03
2023-01-23T15:59:18.468Z,100056.56
2023-01-23T16:01:20.163Z,100059.28
2023-01-23T16:03:21.749Z,100072.22
2023-01-23T16:05:26.255Z,100069.72
2023-01-23T16:07:36.662Z,100071.78
2023-01-23T16:09:40.420Z,100071.34
2023-01-23T16:11:42.114Z,100063.38
2023-01-23T16:13:44.435Z,100073.84
2023-01-23T16:15:46.451Z,100067.78
2023-01-23T16:17:48.894Z,100072.75
2023-01-23T16:19:50.719Z,100070.44
2023-01-23T16:22:03.404Z,100073.75
2023-01-23T16:24:06.715Z,100080.63
2023-01-23T16:26:23.280Z,100082.69
2023-01-23T16:28:29.409Z,100081.03
2023-01-23T16:30:33.713Z,100077.81
2023-01-23T16:32:35.522Z,100088.28
2023-01-23T16:34:37.348Z,100087.59
2023-01-23T16:36:39.171Z,100090.91
2023-01-23T16:38:47.565Z,100095.94
2023-01-23T16:40:53.222Z,100097.34
2023-01-23T16:42:55.956Z,100098.56
2023-01-23T16:44:59.291Z,100074.72
2023-01-23T16:47:01.092Z,100066.97
2023-01-23T16:49:02.751Z,100068.22
2023-01-23T16:51:11.815Z,100069.66
2023-01-23T16:53:36.984Z,100081.91
2023-01-23T16:55:41.142Z,100082.50
2023-01-23T16:57:43.027Z,100090.03
2023-01-23T16:59:45.705Z,100090.78
2023-01-23T17:01:50.920Z,100094.94
2023-01-23T17:03:59.893Z,100094.47
2023-01-23T17:06:02.035Z,100103.84
2023-01-23T17:08:21.771Z,100109.03
2023-01-23T17:10:41.260Z,100102.75
2023-01-23T17:12:52.868Z,100115.69
2023-01-23T17:14:55.265Z,100111.31
2023-01-23T17:17:03.131Z,100114.41
2023-01-23T17:19:16.823Z,100114.41
2023-01-23T17:21:21.786Z,100121.91
2023-01-23T17:23:25.460Z,100123.75
2023-01-23T17:25:27.475Z,100121.63
2023-01-23T17:27:30.158Z,100116.22
2023-01-23T17:29:31.851Z,100117.22
2023-01-23T17:31:33.811Z,100127.06
2023-01-23T17:33:35.569Z,100130.16
2023-01-23T17:35:37.659Z,100137.81
2023-01-23T17:37:42.449Z,100130.91
2023-01-23T17:39:43.975Z,100131.13
2023-01-23T17:41:52.736Z,100143.34
2023-01-23T17:43:54.952Z,100141.88
2023-01-23T17:45:57.428Z,100142.06
2023-01-23T17:47:59.218Z,100155.44
2023-01-23T17:50:01.356Z,100160.03
2023-01-23T17:52:06.601Z,100151.06
2023-01-23T17:54:19.584Z,100152.91
2023-01-23T17:56:21.798Z,100147.69
2023-01-23T17:58:23.683Z,100156.00
2023-01-23T18:00:29.318Z,100165.19
2023-01-23T18:02:32.255Z,100158.72
2023-01-23T18:04:34.067Z,100166.22
2023-01-23T18:06:36.137Z,100166.22
2023-01-23T18:08:45.362Z,100169.78
2023-01-23T18:10:51.147Z,100171.84
2023-01-23T18:13:38.096Z,100176.41
2023-01-23T18:15:53.985Z,100172.00
2023-01-23T18:18:09.068Z,100177.81
2023-01-23T18:20:22.524Z,100163.44
2023-01-23T18:22:24.595Z,100169.03
2023-01-23T18:24:33.178Z,100161.09
2023-01-23T18:26:58.688Z,100155.84
2023-01-23T18:29:21.989Z,100163.16
2023-01-23T18:31:38.918Z,100158.09
2023-01-23T18:34:01.854Z,100156.41
2023-01-23T18:36:22.113Z,100165.41
2023-01-23T18:38:41.699Z,100171.03
2023-01-23T18:41:02.015Z,100173.53
2023-01-23T18:43:42.525Z,100173.72
2023-01-23T18:45:44.642Z,100176.44
2023-01-23T18:47:46.616Z,100186.25
2023-01-23T18:49:48.606Z,100184.38
2023-01-23T18:52:06.577Z,100179.81
2023-01-23T18:54:29.452Z,100179.81
2023-01-23T18:56:43.253Z,100188.94
2023-01-23T18:59:13.990Z,100185.59
2023-01-23T19:01:24.942Z,100184.94
2023-01-23T19:03:44.289Z,100189.31
2023-01-23T19:05:48.711Z,100194.75
2023-01-23T19:07:51.054Z,100195.78
2023-01-23T19:09:53.061Z,100192.03
2023-01-23T19:12:25.744Z,100192.22
2023-01-23T19:15:01.611Z,100204.94
2023-01-23T19:17:21.229Z,100197.84
2023-01-23T19:19:47.433Z,100200.56
2023-01-23T19:21:57.948Z,100201.38
2023-01-23T19:24:01.646Z,100204.09
2023-01-23T19:26:04.275Z,100204.94
2023-01-23T19:28:07.216Z,100206.00
2023-01-23T19:30:12.261Z,100204.28
2023-01-23T19:32:14.131Z,100209.91
2023-01-23T19:34:15.870Z,100208.22
2023-01-23T19:36:18.194Z,100211.78
2023-01-23T19:38:21.918Z,100212.16
2023-01-23T19:40:27.202Z,100211.28
2023-01-23T19:42:38.765Z,100217.78
2023-01-23T19:44:50.732Z,100217.94
2023-01-23T19:46:52.924Z,100209.81
2023-01-23T19:48:57.998Z,100225.91
2023-01-23T19:50:59.723Z,100227.75
2023-01-23T19:53:03.936Z,100223.34
2023-01-23T19:55:05.586Z,100220.84
2023-01-23T19:57:07.425Z,100218.31
2023-01-23T19:59:10.096Z,100230.00
2023-01-23T20:01:33.406Z,100233.34
2023-01-23T20:03:35.716Z,100239.63
2023-01-23T20:05:37.393Z,100232.69
2023-01-23T20:07:39.222Z,100234.56
2023-01-23T20:09:41.171Z,100238.31
2023-01-23T20:11:43.485Z,100228.34
2023-01-23T20:13:48.286Z,100240.19
2023-01-23T20:15:51.309Z,100239.16
2023-01-23T20:18:04.820Z,100237.47
2023-01-23T20:20:11.391Z,100239.53
2023-01-23T20:22:13.113Z,100243.09
2023-01-23T20:24:18.001Z,100235.97
2023-01-23T20:26:21.939Z,100241.19
2023-01-23T20:28:23.539Z,100237.69
2023-01-23T20:30:33.175Z,100240.38
2023-01-23T20:32:35.308Z,100240.56
2023-01-23T20:34:37.165Z,100237.00
2023-01-23T20:36:39.213Z,100241.59
2023-01-23T20:38:41.430Z,100235.97
2023-01-23T20:40:44.337Z,100238.69
2023-01-23T20:42:47.060Z,100234.47
2023-01-23T20:44:48.936Z,100240.75
2023-01-23T20:46:50.570Z,100233.47
2023-01-23T20:48:52.269Z,100235.31
2023-01-23T20:50:56.320Z,100239.91
2023-01-23T20:53:33.120Z,100247.03
2023-01-23T20:55:34.915Z,100242.63
2023-01-23T20:57:55.295Z,100245.31
2023-01-23T20:59:59.881Z,100240.91
2023-01-23T21:02:20.320Z,100236.34
2023-01-23T21:04:24.427Z,100232.97
2023-01-23T21:06:25.949Z,100234.00
2023-01-23T21:08:27.569Z,100247.75
2023-01-23T21:10:29.753Z,100247.75
2023-01-23T21:12:31.409Z,100235.03
2023-01-23T21:14:35.652Z,100245.88
2023-01-23T21:16:37.519Z,100239.81
2023-01-23T21:18:46.284Z,100229.13
2023-01-23T21:20:47.876Z,100225.59
2023-01-23T21:22:52.708Z,100234.75
2023-01-23T21:24:54.388Z,100237.47
2023-01-23T21:27:02.374Z,100234.75
2023-01-23T21:29:04.203Z,100234.75
2023-01-23T21:31:15.237Z,100234.75
2023-01-23T21:33:17.019Z,100244.56
2023-01-23T21:35:19.497Z,100249.97
2023-01-23T21:37:24.520Z,100246.44
2023-01-23T21:39:26.453Z,100249.97
2023-01-23T21:41:31.028Z,100258.09
2023-01-23T21:43:33.749Z,100258.09
2023-01-23T21:45:35.550Z,100259.16
2023-01-23T21:47:37.114Z,100261.84
2023-01-23T21:49:38.784Z,100267.28
2023-01-23T21:51:40.434Z,100264.56
2023-01-23T21:53:44.126Z,100267.28
2023-01-23T21:55:51.696Z,100273.53
2023-01-23T21:57:56.150Z,100264.56
2023-01-23T22:00:19.683Z,100261.84
2023-01-23T22:02:21.426Z,100268.13
2023-01-23T22:04:48.233Z,100255.78
2023-01-23T22:06:55.737Z,100262.88
2023-01-23T22:08:58.371Z,100266.44
2023-01-23T22:11:07.591Z,100268.66
2023-01-23T22:13:09.349Z,100273.06
2023-01-23T22:15:11.515Z,100270.16
2023-01-23T22:17:13.027Z,100271.00
2023-01-23T22:19:16.483Z,100262.41
2023-01-23T22:21:18.116Z,100276.78
2023-01-23T22:23:24.217Z,100272.56
2023-01-23T22:25:25.873Z,100265.28
2023-01-23T22:27:27.557Z,100268.19
2023-01-23T22:29:29.340Z,100264.63
2023-01-23T22:31:31.101Z,100271.75
2023-01-23T22:33:40.377Z,100270.91
2023-01-23T22:35:43.265Z,100266.50
2023-01-23T22:37:47.663Z,100269.22
2023-01-23T22:39:51.564Z,100265.50
2023-01-23T22:41:53.327Z,100264.16
2023-01-23T22:43:56.833Z,100256.72
2023-01-23T22:46:08.510Z,100256.88
2023-01-23T22:48:10.013Z,100260.22
2023-01-23T22:50:11.800Z,100257.53
2023-01-23T22:52:13.349Z,100253.81
2023-01-23T22:54:15.830Z,100253.16
2023-01-23T22:56:17.472Z,100251.09
2023-01-23T22:58:19.064Z,100255.00
2023-01-23T23:00:20.911Z,100255.88
2023-01-23T23:02:22.447Z,100259.59
2023-01-23T23:04:26.740Z,100259.59
2023-01-23T23:06:28.847Z,100264.16
2023-01-23T23:08:31.094Z,100270.63
2023-01-23T23:10:32.954Z,100273.31
2023-01-23T23:12:34.611Z,100268.91
2023-01-23T23:14:37.556Z,100266.41
2023-01-23T23:16:39.324Z,100268.28
2023-01-23T23:18:41.850Z,100270.97
2023-01-23T23:20:43.461Z,100274.53
2023-01-23T23:22:45.216Z,100272.84
2023-01-23T23:24:46.867Z,100267.41
2023-01-23T23:26:48.824Z,100269.97
2023-01-23T23:28:50.531Z,100271.81
2023-01-23T23:30:52.999Z,100270.78
2023-01-23T23:32:54.675Z,100279.94
2023-01-23T23:34:59.115Z,100279.09
2023-01-23T23:37:01.079Z,100278.25
2023-01-23T23:39:02.817Z,100276.59
2023-01-23T23:41:06.989Z,100269.13
2023-01-23T23:43:08.799Z,100267.25
2023-01-23T23:45:13.463Z,100266.22
2023-01-23T23:47:14.991Z,100263.50
2023-01-23T23:49:16.747Z,100258.94
2023-01-23T23:51:19.374Z,100263.69
2023-01-23T23:53:21.628Z,100265.75
2023-01-23T23:55:23.577Z,100257.78
2023-01-23T23:57:25.283Z,100263.22
2023-01-23T23:59:27.048Z,100265.06
